createdAt,value
2019-03-19T00:00:38.206Z,1.40
2019-03-19T00:01:38.228Z,1.40
2019-03-19T00:02:38.292Z,1.30
2019-03-19T00:03:38.218Z,1.30
2019-03-19T00:04:38.287Z,1.30
2019-03-19T00:05:38.289Z,1.30
2019-03-19T00:06:38.286Z,1.30
2019-03-19T00:07:38.224Z,1.30
2019-03-19T00:08:38.288Z,1.30
2019-03-19T00:09:38.291Z,1.30
2019-03-19T00:10:38.292Z,1.30
2019-03-19T00:11:38.324Z,1.30
2019-03-19T00:12:38.238Z,2.00
2019-03-19T00:13:38.311Z,2.00
2019-03-19T00:14:38.260Z,2.00
2019-03-19T00:15:38.144Z,2.00
2019-03-19T00:16:38.265Z,2.00
2019-03-19T00:17:38.206Z,2.00
2019-03-19T00:18:38.176Z,2.00
2019-03-19T00:19:38.214Z,2.00
2019-03-19T00:20:38.150Z,2.00
2019-03-19T00:21:38.180Z,2.00
2019-03-19T00:22:38.317Z,1.80
2019-03-19T00:23:38.299Z,1.80
2019-03-19T00:24:38.250Z,1.80
2019-03-19T00:25:38.310Z,1.80
2019-03-19T00:26:38.259Z,1.80
2019-03-19T00:27:38.310Z,1.80
2019-03-19T00:28:39.137Z,1.80
2019-03-19T00:29:38.245Z,1.80
2019-03-19T00:30:38.313Z,1.80
2019-03-19T00:31:38.257Z,1.80
2019-03-19T00:32:38.251Z,1.70
2019-03-19T00:33:38.237Z,1.70
2019-03-19T00:34:38.231Z,1.70
2019-03-19T00:35:38.309Z,1.70
2019-03-19T00:36:38.254Z,1.70
2019-03-19T00:37:38.254Z,1.70
2019-03-19T00:38:38.313Z,1.70
2019-03-19T00:40:38.308Z,1.70
2019-03-19T00:41:38.310Z,1.70
2019-03-19T00:42:38.261Z,1.70
2019-03-19T00:43:38.257Z,1.70
2019-03-19T00:44:38.312Z,1.70
2019-03-19T00:45:38.242Z,1.70
2019-03-19T00:46:38.320Z,1.70
2019-03-19T00:47:38.387Z,1.70
2019-03-19T00:48:38.259Z,1.70
2019-03-19T00:49:38.269Z,1.70
2019-03-19T00:50:38.254Z,1.70
2019-03-19T00:51:38.331Z,1.70
2019-03-19T00:52:38.322Z,1.20
2019-03-19T00:53:38.326Z,1.20
2019-03-19T00:54:38.273Z,1.20
2019-03-19T00:55:40.870Z,1.20
2019-03-19T00:56:38.323Z,1.20
2019-03-19T00:57:38.336Z,1.20
2019-03-19T00:58:38.269Z,1.20
2019-03-19T00:59:38.311Z,1.20
2019-03-19T01:00:38.334Z,1.20
2019-03-19T01:01:38.934Z,1.20
2019-03-19T01:02:38.245Z,1.40
2019-03-19T01:03:38.314Z,1.40
2019-03-19T01:04:38.342Z,1.40
2019-03-19T01:05:38.320Z,1.40
2019-03-19T01:06:38.315Z,1.40
2019-03-19T01:07:38.250Z,1.40
2019-03-19T01:08:38.342Z,1.40
2019-03-19T01:09:38.266Z,1.40
2019-03-19T01:10:38.250Z,1.40
2019-03-19T01:11:38.323Z,1.40
2019-03-19T01:12:38.227Z,1.30
2019-03-19T01:13:38.315Z,1.30
2019-03-19T01:14:38.278Z,1.30
2019-03-19T01:15:38.318Z,1.30
2019-03-19T01:16:38.322Z,1.30
2019-03-19T01:17:38.274Z,1.30
2019-03-19T01:18:38.311Z,1.30
2019-03-19T01:19:38.326Z,1.30
2019-03-19T01:20:38.293Z,1.30
2019-03-19T01:21:38.335Z,1.30
2019-03-19T01:22:38.330Z,1.90
2019-03-19T01:23:38.331Z,1.90
2019-03-19T01:24:38.328Z,1.90
2019-03-19T01:25:39.626Z,1.90
2019-03-19T01:26:38.221Z,1.90
2019-03-19T01:27:38.339Z,1.90
2019-03-19T01:28:38.335Z,1.90
2019-03-19T01:29:38.267Z,1.90
2019-03-19T01:30:38.337Z,1.90
2019-03-19T01:31:38.274Z,1.90
2019-03-19T01:32:38.356Z,1.90
2019-03-19T01:33:38.351Z,1.70
2019-03-19T01:34:38.297Z,1.70
2019-03-19T01:35:38.313Z,1.70
2019-03-19T01:36:38.292Z,1.70
2019-03-19T01:37:38.361Z,1.70
2019-03-19T01:38:38.297Z,1.70
2019-03-19T01:39:38.354Z,1.70
2019-03-19T01:40:38.299Z,1.70
2019-03-19T01:41:38.296Z,1.70
2019-03-19T01:42:38.418Z,1.70
2019-03-19T01:43:38.379Z,1.40
2019-03-19T01:44:38.318Z,1.40
2019-03-19T01:45:38.307Z,1.40
2019-03-19T01:46:38.312Z,1.40
2019-03-19T01:47:38.375Z,1.40
2019-03-19T01:48:38.306Z,1.40
2019-03-19T01:49:38.315Z,1.40
2019-03-19T01:50:38.385Z,1.40
2019-03-19T01:51:38.374Z,1.40
2019-03-19T01:52:38.326Z,1.40
2019-03-19T01:53:38.250Z,1.00
2019-03-19T01:54:38.238Z,1.00
2019-03-19T01:55:38.252Z,1.00
2019-03-19T01:56:38.256Z,1.00
2019-03-19T01:57:38.276Z,1.00
2019-03-19T01:58:38.234Z,1.00
2019-03-19T01:59:38.262Z,1.00
2019-03-19T02:00:38.350Z,1.00
2019-03-19T02:01:38.234Z,1.00
2019-03-19T02:02:38.342Z,1.00
2019-03-19T02:03:38.357Z,1.30
2019-03-19T02:04:38.268Z,1.30
2019-03-19T02:05:38.372Z,1.30
2019-03-19T02:06:38.334Z,1.30
2019-03-19T02:07:38.358Z,1.30
2019-03-19T02:08:38.265Z,1.30
2019-03-19T02:09:38.352Z,1.30
2019-03-19T02:10:38.321Z,1.30
2019-03-19T02:11:38.582Z,1.30
2019-03-19T02:12:38.268Z,1.30
2019-03-19T02:13:38.303Z,1.60
2019-03-19T02:14:38.363Z,1.60
2019-03-19T02:15:38.325Z,1.60
2019-03-19T02:16:38.309Z,1.60
2019-03-19T02:17:38.371Z,1.60
2019-03-19T02:18:38.298Z,1.60
2019-03-19T02:19:38.374Z,1.60
2019-03-19T02:20:38.367Z,1.60
2019-03-19T02:21:38.376Z,1.60
2019-03-19T02:22:38.377Z,1.60
2019-03-19T02:23:38.433Z,0.70
2019-03-19T02:24:38.408Z,0.70
2019-03-19T02:25:38.335Z,0.70
2019-03-19T02:26:38.401Z,0.70
2019-03-19T02:28:38.327Z,0.70
2019-03-19T02:29:38.345Z,0.70
2019-03-19T02:30:38.355Z,0.70
2019-03-19T02:31:38.408Z,0.70
2019-03-19T02:32:38.419Z,0.70
2019-03-19T02:33:38.473Z,1.20
2019-03-19T02:34:38.443Z,1.20
2019-03-19T02:35:38.390Z,1.20
2019-03-19T02:36:38.378Z,1.20
2019-03-19T02:37:38.407Z,1.20
2019-03-19T02:38:38.395Z,1.20
2019-03-19T02:39:38.324Z,1.20
2019-03-19T02:40:38.392Z,1.20
2019-03-19T02:41:38.403Z,1.20
2019-03-19T02:42:38.402Z,1.20
2019-03-19T02:43:38.342Z,1.90
2019-03-19T02:44:38.338Z,1.90
2019-03-19T02:45:38.398Z,1.90
2019-03-19T02:46:38.348Z,1.90
2019-03-19T02:47:38.342Z,1.90
2019-03-19T02:48:38.421Z,1.90
2019-03-19T02:49:38.337Z,1.90
2019-03-19T02:50:38.349Z,1.90
2019-03-19T02:51:38.423Z,1.90
2019-03-19T02:52:38.356Z,1.90
2019-03-19T02:53:38.416Z,1.30
2019-03-19T02:54:38.356Z,1.30
2019-03-19T02:55:38.443Z,1.30
2019-03-19T02:56:38.333Z,1.30
2019-03-19T02:57:38.415Z,1.30
2019-03-19T02:58:38.299Z,1.30
2019-03-19T02:59:38.402Z,1.30
2019-03-19T03:00:38.440Z,1.30
2019-03-19T03:01:38.336Z,1.30
2019-03-19T03:02:38.429Z,1.30
2019-03-19T03:03:38.293Z,1.70
2019-03-19T03:04:38.359Z,1.70
2019-03-19T03:05:38.285Z,1.70
2019-03-19T03:06:38.347Z,1.70
2019-03-19T03:07:38.290Z,1.70
2019-03-19T03:08:38.403Z,1.70
2019-03-19T03:09:38.312Z,1.70
2019-03-19T03:10:38.354Z,1.70
2019-03-19T03:11:38.354Z,1.70
2019-03-19T03:12:38.395Z,1.70
2019-03-19T03:13:38.407Z,2.99
2019-03-19T03:14:38.349Z,2.99
2019-03-19T03:15:38.353Z,2.99
2019-03-19T03:16:38.416Z,2.99
2019-03-19T03:17:38.343Z,2.99
2019-03-19T03:18:38.412Z,2.99
2019-03-19T03:19:38.411Z,2.99
2019-03-19T03:20:38.474Z,2.99
2019-03-19T03:21:38.433Z,2.99
2019-03-19T03:22:38.480Z,2.99
2019-03-19T03:23:38.414Z,2.60
2019-03-19T03:24:38.413Z,2.60
2019-03-19T03:25:38.356Z,2.60
2019-03-19T03:26:47.784Z,2.60
2019-03-19T03:27:38.364Z,2.60
2019-03-19T03:28:38.435Z,2.60
2019-03-19T03:29:38.346Z,2.60
2019-03-19T03:30:38.440Z,2.60
2019-03-19T03:31:38.445Z,2.60
2019-03-19T03:32:38.367Z,2.60
2019-03-19T03:33:38.340Z,3.00
2019-03-19T03:34:38.417Z,3.00
2019-03-19T03:35:38.304Z,3.00
2019-03-19T03:36:38.366Z,3.00
2019-03-19T03:37:38.349Z,3.00
2019-03-19T03:38:38.445Z,3.00
2019-03-19T03:39:38.413Z,3.00
2019-03-19T03:40:38.427Z,3.00
2019-03-19T03:41:38.345Z,3.00
2019-03-19T03:42:38.436Z,3.00
2019-03-19T03:43:38.431Z,1.90
2019-03-19T03:44:38.373Z,1.90
2019-03-19T03:45:38.436Z,1.90
2019-03-19T03:46:38.443Z,1.90
2019-03-19T03:47:38.364Z,1.90
2019-03-19T03:48:38.371Z,1.90
2019-03-19T03:49:38.441Z,1.90
2019-03-19T03:50:38.436Z,1.90
2019-03-19T03:51:38.369Z,1.90
2019-03-19T03:52:38.435Z,1.90
2019-03-19T03:53:38.370Z,2.80
2019-03-19T03:54:38.438Z,2.80
2019-03-19T03:55:38.436Z,2.80
2019-03-19T03:56:38.441Z,2.80
2019-03-19T03:57:38.393Z,2.80
2019-03-19T03:58:38.448Z,2.80
2019-03-19T03:59:38.447Z,2.80
2019-03-19T04:00:38.379Z,2.80
2019-03-19T04:01:38.463Z,2.80
2019-03-19T04:02:38.441Z,2.80
2019-03-19T04:03:38.458Z,1.90
2019-03-19T04:04:38.400Z,1.90
2019-03-19T04:05:38.400Z,1.90
2019-03-19T04:06:38.479Z,1.90
2019-03-19T04:07:38.390Z,1.90
2019-03-19T04:08:38.438Z,1.90
2019-03-19T04:09:38.486Z,1.90
2019-03-19T04:10:38.471Z,1.90
2019-03-19T04:11:38.387Z,1.90
2019-03-19T04:12:38.465Z,1.90
2019-03-19T04:13:38.468Z,2.99
2019-03-19T04:14:38.469Z,2.99
2019-03-19T04:15:38.391Z,2.99
2019-03-19T04:16:38.466Z,2.99
2019-03-19T04:17:38.408Z,2.99
2019-03-19T04:18:38.401Z,2.99
2019-03-19T04:19:38.463Z,2.99
2019-03-19T04:20:38.480Z,2.99
2019-03-19T04:21:38.453Z,2.99
2019-03-19T04:22:38.473Z,2.99
2019-03-19T04:23:38.413Z,2.70
2019-03-19T04:24:38.345Z,2.70
2019-03-19T04:25:38.417Z,2.70
2019-03-19T04:26:38.333Z,2.70
2019-03-19T04:27:40.281Z,2.70
2019-03-19T04:28:38.388Z,2.70
2019-03-19T04:29:38.445Z,2.70
2019-03-19T04:30:38.321Z,2.70
2019-03-19T04:31:38.442Z,2.70
2019-03-19T04:32:38.414Z,2.70
2019-03-19T04:33:38.400Z,3.99
2019-03-19T04:34:38.453Z,3.99
2019-03-19T04:35:38.396Z,3.99
2019-03-19T04:36:38.421Z,3.99
2019-03-19T04:37:38.462Z,3.99
2019-03-19T04:38:38.344Z,3.99
2019-03-19T04:39:38.380Z,3.99
2019-03-19T04:40:38.465Z,3.99
2019-03-19T04:41:38.473Z,3.99
2019-03-19T04:42:38.489Z,3.99
2019-03-19T04:43:38.333Z,2.60
2019-03-19T04:44:38.450Z,2.60
2019-03-19T04:45:38.445Z,2.60
2019-03-19T04:46:38.396Z,2.60
2019-03-19T04:47:38.460Z,2.60
2019-03-19T04:48:38.453Z,2.60
2019-03-19T04:49:38.363Z,2.60
2019-03-19T04:50:38.344Z,2.60
2019-03-19T04:51:38.344Z,2.60
2019-03-19T04:52:38.430Z,2.60
2019-03-19T04:53:38.490Z,2.80
2019-03-19T04:54:38.417Z,2.80
2019-03-19T04:55:38.419Z,2.80
2019-03-19T04:56:38.483Z,2.80
2019-03-19T04:57:38.415Z,2.80
2019-03-19T04:58:38.484Z,2.80
2019-03-19T04:59:38.416Z,2.80
2019-03-19T05:00:38.482Z,2.80
2019-03-19T05:01:38.416Z,2.80
2019-03-19T05:02:38.484Z,2.80
2019-03-19T05:03:38.507Z,2.90
2019-03-19T05:04:38.503Z,2.90
2019-03-19T05:05:38.436Z,2.90
2019-03-19T05:06:38.500Z,2.90
2019-03-19T05:07:38.498Z,2.90
2019-03-19T05:08:38.446Z,2.90
2019-03-19T05:09:38.564Z,2.90
2019-03-19T05:10:38.447Z,2.90
2019-03-19T05:11:38.503Z,2.90
2019-03-19T05:12:38.503Z,2.90
2019-03-19T05:13:38.447Z,3.20
2019-03-19T05:14:38.513Z,3.20
2019-03-19T05:15:38.492Z,3.20
2019-03-19T05:16:38.444Z,3.20
2019-03-19T05:17:38.451Z,3.20
2019-03-19T05:18:38.452Z,3.20
2019-03-19T05:19:38.452Z,3.20
2019-03-19T05:20:38.454Z,3.20
2019-03-19T05:21:38.450Z,3.20
2019-03-19T05:22:38.511Z,3.20
2019-03-19T05:23:38.508Z,3.20
2019-03-19T05:24:38.522Z,3.20
2019-03-19T05:25:38.458Z,3.20
2019-03-19T05:26:38.512Z,3.20
2019-03-19T05:27:38.462Z,3.20
2019-03-19T05:28:38.501Z,3.20
2019-03-19T05:29:38.518Z,3.20
2019-03-19T05:30:38.520Z,3.20
2019-03-19T05:31:38.455Z,3.20
2019-03-19T05:32:38.517Z,3.20
2019-03-19T05:33:38.524Z,3.50
2019-03-19T05:34:38.530Z,3.50
2019-03-19T05:35:38.514Z,3.50
2019-03-19T05:36:38.537Z,3.50
2019-03-19T05:37:38.462Z,3.50
2019-03-19T05:38:38.513Z,3.50
2019-03-19T05:39:38.450Z,3.50
2019-03-19T05:40:38.558Z,3.50
2019-03-19T05:41:38.540Z,3.50
2019-03-19T05:42:38.485Z,3.50
2019-03-19T05:43:38.523Z,3.40
2019-03-19T05:44:38.455Z,3.40
2019-03-19T05:45:38.489Z,3.40
2019-03-19T05:46:38.570Z,3.40
2019-03-19T05:47:40.482Z,3.40
2019-03-19T05:48:38.455Z,3.40
2019-03-19T05:49:38.456Z,3.40
2019-03-19T05:50:38.517Z,3.40
2019-03-19T05:51:38.552Z,3.40
2019-03-19T05:52:38.538Z,3.40
2019-03-19T05:53:38.538Z,3.70
2019-03-19T05:54:38.459Z,3.70
2019-03-19T05:55:38.552Z,3.70
2019-03-19T05:56:38.461Z,3.70
2019-03-19T05:57:48.889Z,3.70
2019-03-19T05:58:38.542Z,3.70
2019-03-19T05:59:40.026Z,3.70
2019-03-19T06:00:38.464Z,3.70
2019-03-19T06:01:38.529Z,3.70
2019-03-19T06:02:38.472Z,3.70
2019-03-19T06:03:38.461Z,3.60
2019-03-19T06:04:38.528Z,3.60
2019-03-19T06:05:38.529Z,3.60
2019-03-19T06:06:38.451Z,3.60
2019-03-19T06:07:38.464Z,3.60
2019-03-19T06:08:38.457Z,3.60
2019-03-19T06:09:38.596Z,3.60
2019-03-19T06:10:38.533Z,3.60
2019-03-19T06:11:38.458Z,3.60
2019-03-19T06:12:38.458Z,3.60
2019-03-19T06:13:38.548Z,3.80
2019-03-19T06:14:38.490Z,3.80
2019-03-19T06:15:38.471Z,3.80
2019-03-19T06:16:38.473Z,3.80
2019-03-19T06:17:38.472Z,3.80
2019-03-19T06:18:38.543Z,3.80
2019-03-19T06:19:38.492Z,3.80
2019-03-19T06:20:38.480Z,3.80
2019-03-19T06:21:38.546Z,3.80
2019-03-19T06:22:38.481Z,3.80
2019-03-19T06:23:38.482Z,3.90
2019-03-19T06:24:38.546Z,3.90
2019-03-19T06:25:38.503Z,3.90
2019-03-19T06:26:38.477Z,3.90
2019-03-19T06:27:38.555Z,3.90
2019-03-19T06:28:38.553Z,3.90
2019-03-19T06:29:38.554Z,3.90
2019-03-19T06:30:38.497Z,3.90
2019-03-19T06:31:38.485Z,3.90
2019-03-19T06:32:38.557Z,3.90
2019-03-19T06:33:38.558Z,5.70
2019-03-19T06:34:38.498Z,5.70
2019-03-19T06:35:38.508Z,5.70
2019-03-19T06:36:38.580Z,5.70
2019-03-19T06:37:38.488Z,5.70
2019-03-19T06:38:38.492Z,5.70
2019-03-19T06:39:38.566Z,5.70
2019-03-19T06:40:38.563Z,5.70
2019-03-19T06:41:38.574Z,5.70
2019-03-19T06:42:38.504Z,5.70
2019-03-19T06:43:38.561Z,4.99
2019-03-19T06:44:38.583Z,4.99
2019-03-19T06:45:38.494Z,4.99
2019-03-19T06:46:38.506Z,4.99
2019-03-19T06:47:38.580Z,4.99
2019-03-19T06:48:38.494Z,4.99
2019-03-19T06:49:38.568Z,4.99
2019-03-19T06:50:45.109Z,4.99
2019-03-19T06:51:38.498Z,4.99
2019-03-19T06:52:38.559Z,4.99
2019-03-19T06:53:38.520Z,4.20
2019-03-19T06:54:38.568Z,4.20
2019-03-19T06:55:38.533Z,4.20
2019-03-19T06:56:38.575Z,4.20
2019-03-19T06:57:39.505Z,4.20
2019-03-19T06:58:38.505Z,4.20
2019-03-19T06:59:38.515Z,4.20
2019-03-19T07:00:38.514Z,4.20
2019-03-19T07:01:38.582Z,4.20
2019-03-19T07:02:38.503Z,4.20
2019-03-19T07:03:38.510Z,4.30
2019-03-19T07:04:38.573Z,4.30
2019-03-19T07:05:38.510Z,4.30
2019-03-19T07:06:38.507Z,4.30
2019-03-19T07:07:38.514Z,4.30
2019-03-19T07:08:38.522Z,4.30
2019-03-19T07:09:38.509Z,4.30
2019-03-19T07:10:38.579Z,4.30
2019-03-19T07:11:38.510Z,4.30
2019-03-19T07:12:38.583Z,4.30
2019-03-19T07:13:38.528Z,3.70
2019-03-19T07:14:38.526Z,3.70
2019-03-19T07:15:38.559Z,3.70
2019-03-19T07:16:38.585Z,3.70
2019-03-19T07:17:38.518Z,3.70
2019-03-19T07:18:38.591Z,3.70
2019-03-19T07:19:38.517Z,3.70
2019-03-19T07:20:38.586Z,3.70
2019-03-19T07:21:38.521Z,3.70
2019-03-19T07:22:38.602Z,3.70
2019-03-19T07:23:38.523Z,4.30
2019-03-19T07:24:38.595Z,4.30
2019-03-19T07:25:38.602Z,4.30
2019-03-19T07:26:38.527Z,4.30
2019-03-19T07:27:38.526Z,4.30
2019-03-19T07:28:38.591Z,4.30
2019-03-19T07:29:38.545Z,4.30
2019-03-19T07:30:40.764Z,4.30
2019-03-19T07:31:38.524Z,4.30
2019-03-19T07:32:38.526Z,4.30
2019-03-19T07:33:38.597Z,5.30
2019-03-19T07:34:38.692Z,5.30
2019-03-19T07:35:38.546Z,5.30
2019-03-19T07:36:38.530Z,5.30
2019-03-19T07:37:38.604Z,5.30
2019-03-19T07:38:38.599Z,5.30
2019-03-19T07:39:38.605Z,5.30
2019-03-19T07:40:38.496Z,5.30
2019-03-19T07:41:38.615Z,5.30
2019-03-19T07:42:38.619Z,5.30
2019-03-19T07:43:38.604Z,4.70
2019-03-19T07:44:38.565Z,4.70
2019-03-19T07:45:38.610Z,4.70
2019-03-19T07:46:38.557Z,4.70
2019-03-19T07:47:38.612Z,4.70
2019-03-19T07:48:38.609Z,4.70
2019-03-19T07:49:38.616Z,4.70
2019-03-19T07:50:38.618Z,4.70
2019-03-19T07:51:38.616Z,4.70
2019-03-19T07:52:38.622Z,4.70
2019-03-19T07:53:38.538Z,5.70
2019-03-19T07:54:38.617Z,5.70
2019-03-19T07:55:38.622Z,5.70
2019-03-19T07:56:38.542Z,5.70
2019-03-19T07:57:38.620Z,5.70
2019-03-19T07:58:45.258Z,5.70
2019-03-19T07:59:38.617Z,5.70
2019-03-19T08:00:38.548Z,5.70
2019-03-19T08:01:38.623Z,5.70
2019-03-19T08:02:38.563Z,5.70
2019-03-19T08:03:38.626Z,5.70
2019-03-19T08:04:38.552Z,5.70
2019-03-19T08:05:38.618Z,5.70
2019-03-19T08:06:38.624Z,5.70
2019-03-19T08:07:38.601Z,5.70
2019-03-19T08:08:38.591Z,5.70
2019-03-19T08:09:38.711Z,5.70
2019-03-19T08:10:38.557Z,5.70
2019-03-19T08:11:38.556Z,5.70
2019-03-19T08:12:38.556Z,5.70
2019-03-19T08:13:38.635Z,5.70
2019-03-19T08:14:38.555Z,7.00
2019-03-19T08:15:38.529Z,7.00
2019-03-19T08:16:38.567Z,7.00
2019-03-19T08:17:38.520Z,7.00
2019-03-19T08:18:38.603Z,7.00
2019-03-19T08:19:38.611Z,7.00
2019-03-19T08:20:38.621Z,7.00
2019-03-19T08:21:38.607Z,7.00
2019-03-19T08:22:38.616Z,7.00
2019-03-19T08:23:38.616Z,7.00
2019-03-19T08:24:38.570Z,6.30
2019-03-19T08:25:38.566Z,6.30
2019-03-19T08:26:38.567Z,6.30
2019-03-19T08:27:38.685Z,6.30
2019-03-19T08:28:38.569Z,6.30
2019-03-19T08:29:38.647Z,6.30
2019-03-19T08:30:38.572Z,6.30
2019-03-19T08:31:38.644Z,6.30
2019-03-19T08:32:38.570Z,6.30
2019-03-19T08:33:38.638Z,6.30
2019-03-19T08:34:38.618Z,5.99
2019-03-19T08:35:38.588Z,5.99
2019-03-19T08:36:38.546Z,5.99
2019-03-19T08:37:38.571Z,5.99
2019-03-19T08:38:38.619Z,5.99
2019-03-19T08:39:38.634Z,5.99
2019-03-19T08:40:38.639Z,5.99
2019-03-19T08:41:38.534Z,5.99
2019-03-19T08:42:38.556Z,5.99
2019-03-19T08:43:38.548Z,5.99
2019-03-19T08:44:38.550Z,6.60
2019-03-19T08:45:38.565Z,6.60
2019-03-19T08:46:38.577Z,6.60
2019-03-19T08:47:38.648Z,6.60
2019-03-19T08:48:38.638Z,6.60
2019-03-19T08:49:38.643Z,6.60
2019-03-19T08:50:38.573Z,6.60
2019-03-19T08:51:38.637Z,6.60
2019-03-19T08:52:38.558Z,6.60
2019-03-19T08:53:38.570Z,6.60
2019-03-19T08:54:38.594Z,5.30
2019-03-19T08:55:38.562Z,5.30
2019-03-19T08:56:38.519Z,5.30
2019-03-19T08:57:38.649Z,5.30
2019-03-19T08:58:38.635Z,5.30
2019-03-19T08:59:38.596Z,5.30
2019-03-19T09:00:38.528Z,5.30
2019-03-19T09:01:38.581Z,5.30
2019-03-19T09:02:38.584Z,5.30
2019-03-19T09:03:38.643Z,5.30
2019-03-19T09:04:38.597Z,5.30
2019-03-19T09:05:38.590Z,5.30
2019-03-19T09:06:38.661Z,5.30
2019-03-19T09:07:38.610Z,5.30
2019-03-19T09:08:38.678Z,5.30
2019-03-19T09:09:38.564Z,5.30
2019-03-19T09:10:38.678Z,5.30
2019-03-19T09:11:38.671Z,5.30
2019-03-19T09:12:38.599Z,5.30
2019-03-19T09:13:38.664Z,5.30
2019-03-19T09:14:38.662Z,4.30
2019-03-19T09:15:38.542Z,4.30
2019-03-19T09:16:38.559Z,4.30
2019-03-19T09:17:38.657Z,4.30
2019-03-19T09:18:38.610Z,4.30
2019-03-19T09:19:38.668Z,4.30
2019-03-19T09:20:38.606Z,4.30
2019-03-19T09:21:38.612Z,4.30
2019-03-19T09:22:38.663Z,4.30
2019-03-19T09:23:38.626Z,4.30
2019-03-19T09:24:38.672Z,4.00
2019-03-19T09:25:38.711Z,4.00
2019-03-19T09:26:38.602Z,4.00
2019-03-19T09:27:38.670Z,4.00
2019-03-19T09:28:38.670Z,4.00
2019-03-19T09:29:38.678Z,4.00
2019-03-19T09:30:38.607Z,4.00
2019-03-19T09:31:38.691Z,4.00
2019-03-19T09:32:38.600Z,4.00
2019-03-19T09:33:38.676Z,4.00
2019-03-19T09:34:38.538Z,3.00
2019-03-19T09:35:38.645Z,3.00
2019-03-19T09:36:38.614Z,3.00
2019-03-19T09:37:44.549Z,3.00
2019-03-19T09:38:38.588Z,3.00
2019-03-19T09:39:38.669Z,3.00
2019-03-19T09:40:38.657Z,3.00
2019-03-19T09:41:38.589Z,3.00
2019-03-19T09:42:38.545Z,3.00
2019-03-19T09:43:38.544Z,3.00
2019-03-19T09:44:38.648Z,3.60
2019-03-19T09:45:38.637Z,3.60
2019-03-19T09:46:38.698Z,3.60
2019-03-19T09:47:38.712Z,3.60
2019-03-19T09:48:38.694Z,3.60
2019-03-19T09:49:38.623Z,3.60
2019-03-19T09:50:38.625Z,3.60
2019-03-19T09:51:38.708Z,3.60
2019-03-19T09:52:38.626Z,3.60
2019-03-19T09:53:38.627Z,3.60
2019-03-19T09:54:38.700Z,3.70
2019-03-19T09:55:38.659Z,3.70
2019-03-19T09:56:38.650Z,3.70
2019-03-19T09:57:38.632Z,3.70
2019-03-19T09:58:38.702Z,3.70
2019-03-19T09:59:38.637Z,3.70
2019-03-19T10:00:38.715Z,3.70
2019-03-19T10:01:38.709Z,3.70
2019-03-19T10:02:38.644Z,3.70
2019-03-19T10:03:38.698Z,3.70
2019-03-19T10:04:38.634Z,2.80
2019-03-19T10:05:38.707Z,2.80
2019-03-19T10:06:38.704Z,2.80
2019-03-19T10:07:38.599Z,2.80
2019-03-19T10:08:38.671Z,2.80
2019-03-19T10:09:38.642Z,2.80
2019-03-19T10:10:38.731Z,2.80
2019-03-19T10:11:38.782Z,2.80
2019-03-19T10:12:38.714Z,2.80
2019-03-19T10:13:38.604Z,2.80
2019-03-19T10:14:38.773Z,2.20
2019-03-19T10:15:38.722Z,2.20
2019-03-19T10:16:38.639Z,2.20
2019-03-19T10:17:38.711Z,2.20
2019-03-19T10:18:38.658Z,2.20
2019-03-19T10:19:38.715Z,2.20
2019-03-19T10:20:38.654Z,2.20
2019-03-19T10:21:38.725Z,2.20
2019-03-19T10:22:38.723Z,2.20
2019-03-19T10:23:38.661Z,2.20
2019-03-19T10:24:38.709Z,2.10
2019-03-19T10:25:38.658Z,2.10
2019-03-19T10:26:38.600Z,2.10
2019-03-19T10:27:38.647Z,2.10
2019-03-19T10:28:38.625Z,2.10
2019-03-19T10:29:38.875Z,2.10
2019-03-19T10:30:38.719Z,2.10
2019-03-19T10:31:38.666Z,2.10
2019-03-19T10:32:38.687Z,2.10
2019-03-19T10:33:38.728Z,2.10
2019-03-19T10:34:38.740Z,2.20
2019-03-19T10:35:38.741Z,2.20
2019-03-19T10:36:38.658Z,2.20
2019-03-19T10:37:38.666Z,2.20
2019-03-19T10:38:38.731Z,2.20
2019-03-19T10:39:38.663Z,2.20
2019-03-19T10:40:38.739Z,2.20
2019-03-19T10:41:38.661Z,2.20
2019-03-19T10:42:38.667Z,2.20
2019-03-19T10:43:38.662Z,2.20
2019-03-19T10:44:38.737Z,1.60
2019-03-19T10:45:38.686Z,1.60
2019-03-19T10:46:38.668Z,1.60
2019-03-19T10:47:38.669Z,1.60
2019-03-19T10:48:38.738Z,1.60
2019-03-19T10:49:38.697Z,1.60
2019-03-19T10:50:38.737Z,1.60
2019-03-19T10:51:38.678Z,1.60
2019-03-19T10:52:38.737Z,1.60
2019-03-19T10:53:38.669Z,1.60
2019-03-19T10:54:38.649Z,1.60
2019-03-19T10:55:38.736Z,1.60
2019-03-19T10:56:39.157Z,1.60
2019-03-19T10:57:38.657Z,1.60
2019-03-19T10:58:38.734Z,1.60
2019-03-19T10:59:48.596Z,1.60
2019-03-19T11:00:38.735Z,1.60
2019-03-19T11:01:38.743Z,1.60
2019-03-19T11:02:38.665Z,1.60
2019-03-19T11:03:38.693Z,1.60
2019-03-19T11:04:38.679Z,1.40
2019-03-19T11:05:38.694Z,1.40
2019-03-19T11:06:38.759Z,1.40
2019-03-19T11:07:38.695Z,1.40
2019-03-19T11:08:38.686Z,1.40
2019-03-19T11:09:38.681Z,1.40
2019-03-19T11:10:38.751Z,1.40
2019-03-19T11:11:38.752Z,1.40
2019-03-19T11:12:38.698Z,1.40
2019-03-19T11:13:38.752Z,1.40
2019-03-19T11:14:38.671Z,2.99
2019-03-19T11:15:38.749Z,2.99
2019-03-19T11:16:38.751Z,2.99
2019-03-19T11:17:38.641Z,2.99
2019-03-19T11:18:38.636Z,2.99
2019-03-19T11:19:38.673Z,2.99
2019-03-19T11:20:38.746Z,2.99
2019-03-19T11:21:38.667Z,2.99
2019-03-19T11:22:38.681Z,2.99
2019-03-19T11:23:38.684Z,2.99
2019-03-19T11:24:38.696Z,2.30
2019-03-19T11:25:38.768Z,2.30
2019-03-19T11:26:38.761Z,2.30
2019-03-19T11:27:38.779Z,2.30
2019-03-19T11:28:38.810Z,2.30
2019-03-19T11:29:38.744Z,2.30
2019-03-19T11:30:38.765Z,2.30
2019-03-19T11:31:38.765Z,2.30
2019-03-19T11:32:38.768Z,2.30
2019-03-19T11:33:38.707Z,2.30
2019-03-19T11:34:38.649Z,1.20
2019-03-19T11:35:38.701Z,1.20
2019-03-19T11:36:38.705Z,1.20
2019-03-19T11:37:38.665Z,1.20
2019-03-19T11:38:38.727Z,1.20
2019-03-19T11:39:38.716Z,1.20
2019-03-19T11:40:38.758Z,1.20
2019-03-19T11:41:38.698Z,1.20
2019-03-19T11:42:38.644Z,1.20
2019-03-19T11:43:38.752Z,1.20
2019-03-19T11:44:38.777Z,1.30
2019-03-19T11:45:38.783Z,1.30
2019-03-19T11:46:38.709Z,1.30
2019-03-19T11:47:38.777Z,1.30
2019-03-19T11:48:38.721Z,1.30
2019-03-19T11:49:38.778Z,1.30
2019-03-19T11:50:38.788Z,1.30
2019-03-19T11:51:38.786Z,1.30
2019-03-19T11:52:40.203Z,1.30
2019-03-19T11:53:38.708Z,1.30
2019-03-19T11:54:38.717Z,0.90
2019-03-19T11:55:38.731Z,0.90
2019-03-19T11:56:38.719Z,0.90
2019-03-19T11:57:38.789Z,0.90
2019-03-19T11:58:38.718Z,0.90
2019-03-19T11:59:38.723Z,0.90
2019-03-19T12:00:38.728Z,0.90
2019-03-19T12:01:38.811Z,0.90
2019-03-19T12:02:38.676Z,0.90
2019-03-19T12:03:38.791Z,0.90
2019-03-19T12:04:38.789Z,1.50
2019-03-19T12:05:38.788Z,1.50
2019-03-19T12:06:38.733Z,1.50
2019-03-19T12:07:38.796Z,1.50
2019-03-19T12:08:38.794Z,1.50
2019-03-19T12:09:40.123Z,1.50
2019-03-19T12:10:38.801Z,1.50
2019-03-19T12:11:38.797Z,1.50
2019-03-19T12:12:38.737Z,1.50
2019-03-19T12:13:38.794Z,1.50
2019-03-19T12:14:38.800Z,1.20
2019-03-19T12:15:38.728Z,1.20
2019-03-19T12:16:38.796Z,1.20
2019-03-19T12:17:38.806Z,1.20
2019-03-19T12:18:38.802Z,1.20
2019-03-19T12:19:38.732Z,1.20
2019-03-19T12:20:38.730Z,1.20
2019-03-19T12:21:38.802Z,1.20
2019-03-19T12:22:38.733Z,1.20
2019-03-19T12:23:38.809Z,1.20
2019-03-19T12:24:38.698Z,1.20
2019-03-19T12:25:38.672Z,1.20
2019-03-19T12:26:38.785Z,1.20
2019-03-19T12:27:38.746Z,1.20
2019-03-19T12:28:39.795Z,1.20
2019-03-19T12:29:38.750Z,1.20
2019-03-19T12:30:38.786Z,1.20
2019-03-19T12:31:38.787Z,1.20
2019-03-19T12:32:38.700Z,1.20
2019-03-19T12:33:41.271Z,1.20
2019-03-19T12:34:38.818Z,0.90
2019-03-19T12:35:38.810Z,0.90
2019-03-19T12:36:38.847Z,0.90
2019-03-19T12:37:38.809Z,0.90
2019-03-19T12:39:38.742Z,0.90
2019-03-19T12:40:38.815Z,0.90
2019-03-19T12:41:38.810Z,0.90
2019-03-19T12:42:38.806Z,0.90
2019-03-19T12:43:38.726Z,0.90
2019-03-19T12:44:38.826Z,1.20
2019-03-19T12:45:38.757Z,1.20
2019-03-19T12:46:38.820Z,1.20
2019-03-19T12:47:38.751Z,1.20
2019-03-19T12:48:38.759Z,1.20
2019-03-19T12:49:38.822Z,1.20
2019-03-19T12:50:38.761Z,1.20
2019-03-19T12:51:38.824Z,1.20
2019-03-19T12:52:38.759Z,1.20
2019-03-19T12:53:38.755Z,1.20
2019-03-19T12:54:38.775Z,2.99
2019-03-19T12:55:38.831Z,2.99
2019-03-19T12:56:38.875Z,2.99
2019-03-19T12:57:38.761Z,2.99
2019-03-19T12:58:38.826Z,2.99
2019-03-19T12:59:38.767Z,2.99
2019-03-19T13:00:38.831Z,2.99
2019-03-19T13:01:38.870Z,2.99
2019-03-19T13:02:38.761Z,2.99
2019-03-19T13:03:38.765Z,2.99
2019-03-19T13:04:38.765Z,1.20
2019-03-19T13:05:38.818Z,1.20
2019-03-19T13:06:38.762Z,1.20
2019-03-19T13:07:38.802Z,1.20
2019-03-19T13:08:38.780Z,1.20
2019-03-19T13:09:38.755Z,1.20
2019-03-19T13:10:38.762Z,1.20
2019-03-19T13:11:38.762Z,1.20
2019-03-19T13:12:38.739Z,1.20
2019-03-19T13:13:40.906Z,1.20
2019-03-19T13:14:38.841Z,1.99
2019-03-19T13:15:38.845Z,1.99
2019-03-19T13:16:38.845Z,1.99
2019-03-19T13:17:38.865Z,1.99
2019-03-19T13:18:38.831Z,1.99
2019-03-19T13:19:38.776Z,1.99
2019-03-19T13:20:38.774Z,1.99
2019-03-19T13:21:38.843Z,1.99